sensor_id;sensor_type;location;lat;lon;timestamp;P1;durP1;ratioP1;P2;durP2;ratioP2
9270;SDS011;4673;53.458;9.940;2022-09-27T00:00:56;2.73;;;2.73;;
9270;SDS011;4673;53.458;9.940;2022-09-27T00:03:33;2.00;;;2.00;;
9270;SDS011;4673;53.458;9.940;2022-09-27T00:06:03;2.17;;;2.17;;
9270;SDS011;4673;53.458;9.940;2022-09-27T00:08:35;1.97;;;1.97;;
9270;SDS011;4673;53.458;9.940;2022-09-27T00:11:05;1.80;;;1.80;;
9270;SDS011;4673;53.458;9.940;2022-09-27T00:13:34;2.20;;;2.20;;
9270;SDS011;4673;53.458;9.940;2022-09-27T00:16:01;2.30;;;2.30;;
9270;SDS011;4673;53.458;9.940;2022-09-27T00:18:29;1.80;;;1.80;;
9270;SDS011;4673;53.458;9.940;2022-09-27T00:20:55;1.80;;;1.80;;
9270;SDS011;4673;53.458;9.940;2022-09-27T00:23:27;2.20;;;2.20;;
9270;SDS011;4673;53.458;9.940;2022-09-27T00:25:57;1.70;;;1.70;;
9270;SDS011;4673;53.458;9.940;2022-09-27T00:28:24;1.77;;;1.77;;
9270;SDS011;4673;53.458;9.940;2022-09-27T00:30:50;2.30;;;2.30;;
9270;SDS011;4673;53.458;9.940;2022-09-27T00:33:15;2.10;;;2.10;;
9270;SDS011;4673;53.458;9.940;2022-09-27T00:35:41;1.57;;;1.57;;
9270;SDS011;4673;53.458;9.940;2022-09-27T00:38:08;1.97;;;1.97;;
9270;SDS011;4673;53.458;9.940;2022-09-27T00:40:34;1.70;;;1.70;;
9270;SDS011;4673;53.458;9.940;2022-09-27T00:42:59;1.90;;;1.90;;
9270;SDS011;4673;53.458;9.940;2022-09-27T00:45:25;1.50;;;1.50;;
9270;SDS011;4673;53.458;9.940;2022-09-27T00:47:55;1.60;;;1.60;;
9270;SDS011;4673;53.458;9.940;2022-09-27T00:50:27;1.53;;;1.53;;
9270;SDS011;4673;53.458;9.940;2022-09-27T00:53:09;1.33;;;1.33;;
9270;SDS011;4673;53.458;9.940;2022-09-27T00:55:38;1.60;;;1.60;;
9270;SDS011;4673;53.458;9.940;2022-09-27T00:58:08;1.83;;;1.83;;
9270;SDS011;4673;53.458;9.940;2022-09-27T01:00:37;1.90;;;1.90;;
9270;SDS011;4673;53.458;9.940;2022-09-27T01:03:06;1.33;;;1.33;;
9270;SDS011;4673;53.458;9.940;2022-09-27T01:05:36;1.67;;;1.67;;
9270;SDS011;4673;53.458;9.940;2022-09-27T01:08:03;1.40;;;1.40;;
9270;SDS011;4673;53.458;9.940;2022-09-27T01:10:30;1.50;;;1.50;;
9270;SDS011;4673;53.458;9.940;2022-09-27T01:13:22;1.40;;;1.40;;
9270;SDS011;4673;53.458;9.940;2022-09-27T01:16:00;1.60;;;1.60;;
9270;SDS011;4673;53.458;9.940;2022-09-27T01:21:38;1.47;;;1.47;;
9270;SDS011;4673;53.458;9.940;2022-09-27T01:35:05;1.00;;;1.00;;
9270;SDS011;4673;53.458;9.940;2022-09-27T01:37:49;0.93;;;0.93;;
9270;SDS011;4673;53.458;9.940;2022-09-27T01:40:42;1.00;;;1.00;;
9270;SDS011;4673;53.458;9.940;2022-09-27T01:43:22;1.30;;;1.30;;
9270;SDS011;4673;53.458;9.940;2022-09-27T01:45:55;1.00;;;1.00;;
9270;SDS011;4673;53.458;9.940;2022-09-27T01:48:24;1.07;;;1.07;;
9270;SDS011;4673;53.458;9.940;2022-09-27T01:51:02;1.30;;;1.30;;
9270;SDS011;4673;53.458;9.940;2022-09-27T01:53:40;1.30;;;1.30;;
9270;SDS011;4673;53.458;9.940;2022-09-27T01:56:15;1.30;;;1.30;;
9270;SDS011;4673;53.458;9.940;2022-09-27T01:59:13;1.37;;;1.37;;
9270;SDS011;4673;53.458;9.940;2022-09-27T02:01:42;1.17;;;1.17;;
9270;SDS011;4673;53.458;9.940;2022-09-27T02:04:12;1.13;;;1.13;;
9270;SDS011;4673;53.458;9.940;2022-09-27T02:06:44;1.50;;;1.50;;
9270;SDS011;4673;53.458;9.940;2022-09-27T02:09:14;1.07;;;1.07;;
9270;SDS011;4673;53.458;9.940;2022-09-27T02:11:45;1.30;;;1.30;;
9270;SDS011;4673;53.458;9.940;2022-09-27T02:14:17;1.20;;;1.20;;
9270;SDS011;4673;53.458;9.940;2022-09-27T02:16:48;1.20;;;1.20;;
9270;SDS011;4673;53.458;9.940;2022-09-27T02:22:16;1.50;;;1.50;;
9270;SDS011;4673;53.458;9.940;2022-09-27T02:24:47;1.30;;;1.30;;
9270;SDS011;4673;53.458;9.940;2022-09-27T02:28:03;1.30;;;1.30;;
9270;SDS011;4673;53.458;9.940;2022-09-27T02:30:30;1.40;;;1.40;;
9270;SDS011;4673;53.458;9.940;2022-09-27T02:32:56;1.50;;;1.50;;
9270;SDS011;4673;53.458;9.940;2022-09-27T02:35:23;1.20;;;1.20;;
9270;SDS011;4673;53.458;9.940;2022-09-27T02:37:51;1.37;;;1.37;;
9270;SDS011;4673;53.458;9.940;2022-09-27T02:40:18;1.40;;;1.40;;
9270;SDS011;4673;53.458;9.940;2022-09-27T02:42:44;1.37;;;1.37;;
9270;SDS011;4673;53.458;9.940;2022-09-27T02:45:10;1.37;;;1.37;;
9270;SDS011;4673;53.458;9.940;2022-09-27T02:47:56;1.30;;;1.30;;
9270;SDS011;4673;53.458;9.940;2022-09-27T02:58:46;1.67;;;1.67;;
9270;SDS011;4673;53.458;9.940;2022-09-27T03:01:24;1.50;;;1.50;;
9270;SDS011;4673;53.458;9.940;2022-09-27T03:06:33;1.67;;;1.67;;
9270;SDS011;4673;53.458;9.940;2022-09-27T03:09:02;1.60;;;1.60;;
9270;SDS011;4673;53.458;9.940;2022-09-27T03:11:27;1.57;;;1.57;;
9270;SDS011;4673;53.458;9.940;2022-09-27T03:13:53;1.73;;;1.73;;
9270;SDS011;4673;53.458;9.940;2022-09-27T03:16:19;1.67;;;1.67;;
9270;SDS011;4673;53.458;9.940;2022-09-27T03:18:44;1.50;;;1.50;;
9270;SDS011;4673;53.458;9.940;2022-09-27T03:21:10;1.83;;;1.83;;
9270;SDS011;4673;53.458;9.940;2022-09-27T03:23:35;2.03;;;2.03;;
9270;SDS011;4673;53.458;9.940;2022-09-27T03:26:02;1.47;;;1.47;;
9270;SDS011;4673;53.458;9.940;2022-09-27T03:28:27;1.87;;;1.87;;
9270;SDS011;4673;53.458;9.940;2022-09-27T03:30:54;2.10;;;2.10;;
9270;SDS011;4673;53.458;9.940;2022-09-27T03:33:19;1.73;;;1.73;;
9270;SDS011;4673;53.458;9.940;2022-09-27T03:35:45;2.00;;;2.00;;
9270;SDS011;4673;53.458;9.940;2022-09-27T03:38:11;1.90;;;1.90;;
9270;SDS011;4673;53.458;9.940;2022-09-27T03:40:38;1.80;;;1.80;;
9270;SDS011;4673;53.458;9.940;2022-09-27T03:43:03;1.50;;;1.50;;
9270;SDS011;4673;53.458;9.940;2022-09-27T03:45:29;1.53;;;1.53;;
9270;SDS011;4673;53.458;9.940;2022-09-27T03:47:55;1.90;;;1.90;;
9270;SDS011;4673;53.458;9.940;2022-09-27T03:50:20;1.90;;;1.90;;
9270;SDS011;4673;53.458;9.940;2022-09-27T03:52:46;1.80;;;1.80;;
9270;SDS011;4673;53.458;9.940;2022-09-27T03:55:11;1.77;;;1.77;;
9270;SDS011;4673;53.458;9.940;2022-09-27T03:57:38;1.70;;;1.70;;
9270;SDS011;4673;53.458;9.940;2022-09-27T04:00:04;1.83;;;1.83;;
9270;SDS011;4673;53.458;9.940;2022-09-27T04:02:30;1.90;;;1.90;;
9270;SDS011;4673;53.458;9.940;2022-09-27T04:04:56;1.40;;;1.40;;
9270;SDS011;4673;53.458;9.940;2022-09-27T04:07:22;1.70;;;1.70;;
9270;SDS011;4673;53.458;9.940;2022-09-27T04:09:47;1.73;;;1.73;;
9270;SDS011;4673;53.458;9.940;2022-09-27T04:12:13;1.70;;;1.70;;
9270;SDS011;4673;53.458;9.940;2022-09-27T04:14:39;1.30;;;1.30;;
9270;SDS011;4673;53.458;9.940;2022-09-27T04:17:05;1.67;;;1.67;;
9270;SDS011;4673;53.458;9.940;2022-09-27T04:19:31;1.40;;;1.40;;
9270;SDS011;4673;53.458;9.940;2022-09-27T04:21:56;1.40;;;1.40;;
9270;SDS011;4673;53.458;9.940;2022-09-27T04:24:22;1.57;;;1.57;;
9270;SDS011;4673;53.458;9.940;2022-09-27T04:26:49;1.90;;;1.90;;
9270;SDS011;4673;53.458;9.940;2022-09-27T04:29:15;1.97;;;1.97;;
9270;SDS011;4673;53.458;9.940;2022-09-27T04:31:41;1.63;;;1.63;;
9270;SDS011;4673;53.458;9.940;2022-09-27T04:34:08;2.07;;;2.07;;
9270;SDS011;4673;53.458;9.940;2022-09-27T04:36:34;1.60;;;1.60;;
9270;SDS011;4673;53.458;9.940;2022-09-27T04:39:01;2.10;;;2.10;;
9270;SDS011;4673;53.458;9.940;2022-09-27T04:41:29;2.10;;;2.10;;
9270;SDS011;4673;53.458;9.940;2022-09-27T04:43:55;2.00;;;2.00;;
9270;SDS011;4673;53.458;9.940;2022-09-27T04:46:22;3.20;;;3.20;;
9270;SDS011;4673;53.458;9.940;2022-09-27T04:48:48;2.60;;;2.60;;
9270;SDS011;4673;53.458;9.940;2022-09-27T04:51:15;2.70;;;2.70;;
9270;SDS011;4673;53.458;9.940;2022-09-27T04:53:42;3.90;;;3.90;;
9270;SDS011;4673;53.458;9.940;2022-09-27T04:56:08;4.13;;;4.13;;
9270;SDS011;4673;53.458;9.940;2022-09-27T04:58:34;4.30;;;4.30;;
9270;SDS011;4673;53.458;9.940;2022-09-27T05:01:00;4.33;;;4.33;;
9270;SDS011;4673;53.458;9.940;2022-09-27T05:03:28;5.47;;;5.47;;
9270;SDS011;4673;53.458;9.940;2022-09-27T05:05:54;5.60;;;5.60;;
9270;SDS011;4673;53.458;9.940;2022-09-27T05:08:20;5.67;;;5.67;;
9270;SDS011;4673;53.458;9.940;2022-09-27T05:10:46;7.60;;;7.60;;
9270;SDS011;4673;53.458;9.940;2022-09-27T05:13:12;7.23;;;7.23;;
9270;SDS011;4673;53.458;9.940;2022-09-27T05:15:38;7.23;;;7.23;;
9270;SDS011;4673;53.458;9.940;2022-09-27T05:18:05;6.87;;;6.87;;
9270;SDS011;4673;53.458;9.940;2022-09-27T05:20:32;7.97;;;7.97;;
9270;SDS011;4673;53.458;9.940;2022-09-27T05:22:58;8.30;;;8.30;;
9270;SDS011;4673;53.458;9.940;2022-09-27T05:25:24;7.93;;;7.93;;
9270;SDS011;4673;53.458;9.940;2022-09-27T05:27:50;8.40;;;8.40;;
9270;SDS011;4673;53.458;9.940;2022-09-27T05:30:16;8.80;;;8.80;;
9270;SDS011;4673;53.458;9.940;2022-09-27T05:32:42;8.57;;;8.57;;
9270;SDS011;4673;53.458;9.940;2022-09-27T05:35:09;11.33;;;11.23;;
9270;SDS011;4673;53.458;9.940;2022-09-27T05:37:35;9.13;;;9.13;;
9270;SDS011;4673;53.458;9.940;2022-09-27T05:40:01;9.17;;;9.07;;
9270;SDS011;4673;53.458;9.940;2022-09-27T05:42:27;10.80;;;10.70;;
9270;SDS011;4673;53.458;9.940;2022-09-27T05:44:52;10.63;;;10.63;;
9270;SDS011;4673;53.458;9.940;2022-09-27T05:47:18;9.33;;;9.33;;
9270;SDS011;4673;53.458;9.940;2022-09-27T05:49:44;10.50;;;10.40;;
9270;SDS011;4673;53.458;9.940;2022-09-27T05:52:09;10.53;;;10.43;;
9270;SDS011;4673;53.458;9.940;2022-09-27T05:54:35;10.33;;;10.23;;
9270;SDS011;4673;53.458;9.940;2022-09-27T05:57:00;9.83;;;9.77;;
9270;SDS011;4673;53.458;9.940;2022-09-27T05:59:26;10.67;;;10.57;;
9270;SDS011;4673;53.458;9.940;2022-09-27T06:01:52;8.90;;;8.80;;
9270;SDS011;4673;53.458;9.940;2022-09-27T06:04:19;9.47;;;9.47;;
9270;SDS011;4673;53.458;9.940;2022-09-27T06:06:45;8.77;;;8.77;;
9270;SDS011;4673;53.458;9.940;2022-09-27T06:09:12;8.17;;;8.17;;
9270;SDS011;4673;53.458;9.940;2022-09-27T06:11:39;7.53;;;7.53;;
9270;SDS011;4673;53.458;9.940;2022-09-27T06:14:05;7.63;;;7.63;;
9270;SDS011;4673;53.458;9.940;2022-09-27T06:16:30;6.80;;;6.80;;
9270;SDS011;4673;53.458;9.940;2022-09-27T06:18:56;6.70;;;6.70;;
9270;SDS011;4673;53.458;9.940;2022-09-27T06:21:22;6.37;;;6.37;;
9270;SDS011;4673;53.458;9.940;2022-09-27T06:23:48;5.13;;;5.13;;
9270;SDS011;4673;53.458;9.940;2022-09-27T06:26:13;5.80;;;5.80;;
9270;SDS011;4673;53.458;9.940;2022-09-27T06:28:40;5.53;;;5.53;;
9270;SDS011;4673;53.458;9.940;2022-09-27T06:31:06;4.43;;;4.43;;
9270;SDS011;4673;53.458;9.940;2022-09-27T06:33:33;4.60;;;4.60;;
9270;SDS011;4673;53.458;9.940;2022-09-27T06:36:00;4.17;;;4.17;;
9270;SDS011;4673;53.458;9.940;2022-09-27T06:38:27;4.07;;;4.07;;
9270;SDS011;4673;53.458;9.940;2022-09-27T06:40:53;3.30;;;3.30;;
9270;SDS011;4673;53.458;9.940;2022-09-27T06:43:22;4.00;;;4.00;;
9270;SDS011;4673;53.458;9.940;2022-09-27T06:45:48;3.43;;;3.43;;
9270;SDS011;4673;53.458;9.940;2022-09-27T06:48:15;3.40;;;3.40;;
9270;SDS011;4673;53.458;9.940;2022-09-27T06:50:41;3.10;;;3.10;;
9270;SDS011;4673;53.458;9.940;2022-09-27T06:53:09;3.30;;;3.30;;
9270;SDS011;4673;53.458;9.940;2022-09-27T06:55:36;3.10;;;3.10;;
9270;SDS011;4673;53.458;9.940;2022-09-27T06:58:02;2.47;;;2.47;;
9270;SDS011;4673;53.458;9.940;2022-09-27T07:00:48;1.80;;;1.80;;
9270;SDS011;4673;53.458;9.940;2022-09-27T07:03:18;2.40;;;2.40;;
9270;SDS011;4673;53.458;9.940;2022-09-27T07:06:05;2.23;;;2.23;;
9270;SDS011;4673;53.458;9.940;2022-09-27T07:08:30;2.07;;;2.07;;
9270;SDS011;4673;53.458;9.940;2022-09-27T07:11:00;1.97;;;1.97;;
9270;SDS011;4673;53.458;9.940;2022-09-27T07:13:27;1.60;;;1.60;;
9270;SDS011;4673;53.458;9.940;2022-09-27T07:15:58;1.80;;;1.80;;
9270;SDS011;4673;53.458;9.940;2022-09-27T07:18:24;1.67;;;1.67;;
9270;SDS011;4673;53.458;9.940;2022-09-27T07:20:51;1.57;;;1.57;;
9270;SDS011;4673;53.458;9.940;2022-09-27T07:23:18;1.50;;;1.50;;
9270;SDS011;4673;53.458;9.940;2022-09-27T07:25:44;1.57;;;1.57;;
9270;SDS011;4673;53.458;9.940;2022-09-27T07:28:14;1.23;;;1.23;;
9270;SDS011;4673;53.458;9.940;2022-09-27T07:30:42;1.63;;;1.63;;
9270;SDS011;4673;53.458;9.940;2022-09-27T07:33:08;1.07;;;1.07;;
9270;SDS011;4673;53.458;9.940;2022-09-27T07:35:34;1.47;;;1.47;;
9270;SDS011;4673;53.458;9.940;2022-09-27T07:38:04;1.07;;;1.07;;
9270;SDS011;4673;53.458;9.940;2022-09-27T07:40:32;1.20;;;1.20;;
9270;SDS011;4673;53.458;9.940;2022-09-27T07:43:00;1.07;;;1.07;;
9270;SDS011;4673;53.458;9.940;2022-09-27T07:45:25;1.30;;;1.30;;
9270;SDS011;4673;53.458;9.940;2022-09-27T07:47:51;1.17;;;1.17;;
9270;SDS011;4673;53.458;9.940;2022-09-27T07:50:17;1.30;;;1.30;;
9270;SDS011;4673;53.458;9.940;2022-09-27T07:52:44;1.20;;;1.20;;
9270;SDS011;4673;53.458;9.940;2022-09-27T07:55:12;1.20;;;1.20;;
9270;SDS011;4673;53.458;9.940;2022-09-27T07:57:39;1.10;;;1.10;;
9270;SDS011;4673;53.458;9.940;2022-09-27T08:00:09;1.43;;;1.43;;
9270;SDS011;4673;53.458;9.940;2022-09-27T08:02:38;1.13;;;1.13;;
9270;SDS011;4673;53.458;9.940;2022-09-27T08:05:07;1.13;;;1.13;;
9270;SDS011;4673;53.458;9.940;2022-09-27T08:07:34;1.10;;;1.10;;
9270;SDS011;4673;53.458;9.940;2022-09-27T08:10:00;0.90;;;0.90;;
9270;SDS011;4673;53.458;9.940;2022-09-27T08:12:25;1.00;;;1.00;;
9270;SDS011;4673;53.458;9.940;2022-09-27T08:14:51;1.47;;;1.47;;
9270;SDS011;4673;53.458;9.940;2022-09-27T08:17:17;1.13;;;1.13;;
9270;SDS011;4673;53.458;9.940;2022-09-27T08:19:46;1.27;;;1.27;;
9270;SDS011;4673;53.458;9.940;2022-09-27T08:22:13;1.10;;;1.10;;
9270;SDS011;4673;53.458;9.940;2022-09-27T08:24:40;1.20;;;1.20;;
9270;SDS011;4673;53.458;9.940;2022-09-27T08:27:06;1.10;;;1.10;;
9270;SDS011;4673;53.458;9.940;2022-09-27T08:29:33;0.83;;;0.83;;
9270;SDS011;4673;53.458;9.940;2022-09-27T08:31:59;1.13;;;1.13;;
9270;SDS011;4673;53.458;9.940;2022-09-27T08:34:24;0.90;;;0.90;;
9270;SDS011;4673;53.458;9.940;2022-09-27T08:36:52;1.10;;;1.10;;
9270;SDS011;4673;53.458;9.940;2022-09-27T08:39:19;0.73;;;0.73;;
9270;SDS011;4673;53.458;9.940;2022-09-27T08:47:17;1.50;;;1.50;;
9270;SDS011;4673;53.458;9.940;2022-09-27T08:49:56;1.00;;;1.00;;
9270;SDS011;4673;53.458;9.940;2022-09-27T08:52:39;0.80;;;0.80;;
9270;SDS011;4673;53.458;9.940;2022-09-27T08:55:46;0.80;;;0.80;;
9270;SDS011;4673;53.458;9.940;2022-09-27T08:58:26;0.60;;;0.60;;
9270;SDS011;4673;53.458;9.940;2022-09-27T09:00:59;1.13;;;1.13;;
9270;SDS011;4673;53.458;9.940;2022-09-27T09:03:34;0.80;;;0.80;;
9270;SDS011;4673;53.458;9.940;2022-09-27T09:08:38;0.70;;;0.70;;
9270;SDS011;4673;53.458;9.940;2022-09-27T09:11:41;0.80;;;0.80;;
9270;SDS011;4673;53.458;9.940;2022-09-27T09:15:04;0.70;;;0.70;;
9270;SDS011;4673;53.458;9.940;2022-09-27T09:23:23;0.80;;;0.80;;
9270;SDS011;4673;53.458;9.940;2022-09-27T09:26:02;0.73;;;0.73;;
9270;SDS011;4673;53.458;9.940;2022-09-27T09:28:37;0.70;;;0.70;;
9270;SDS011;4673;53.458;9.940;2022-09-27T09:31:31;0.60;;;0.60;;
9270;SDS011;4673;53.458;9.940;2022-09-27T09:34:04;0.60;;;0.60;;
9270;SDS011;4673;53.458;9.940;2022-09-27T09:39:54;0.70;;;0.70;;
9270;SDS011;4673;53.458;9.940;2022-09-27T09:47:48;1.00;;;1.00;;
9270;SDS011;4673;53.458;9.940;2022-09-27T09:50:35;0.90;;;0.90;;
9270;SDS011;4673;53.458;9.940;2022-09-27T09:53:24;1.00;;;1.00;;
9270;SDS011;4673;53.458;9.940;2022-09-27T09:56:31;1.30;;;1.30;;
9270;SDS011;4673;53.458;9.940;2022-09-27T09:59:09;0.90;;;0.90;;
9270;SDS011;4673;53.458;9.940;2022-09-27T10:01:49;0.57;;;0.57;;
9270;SDS011;4673;53.458;9.940;2022-09-27T10:04:25;0.80;;;0.80;;
9270;SDS011;4673;53.458;9.940;2022-09-27T10:06:52;0.88;;;0.88;;
9270;SDS011;4673;53.458;9.940;2022-09-27T10:09:21;0.80;;;0.80;;
9270;SDS011;4673;53.458;9.940;2022-09-27T10:11:50;0.70;;;0.70;;
9270;SDS011;4673;53.458;9.940;2022-09-27T10:14:17;0.80;;;0.80;;
9270;SDS011;4673;53.458;9.940;2022-09-27T10:16:45;0.70;;;0.70;;
9270;SDS011;4673;53.458;9.940;2022-09-27T10:19:18;0.90;;;0.90;;
9270;SDS011;4673;53.458;9.940;2022-09-27T10:21:50;0.60;;;0.60;;
9270;SDS011;4673;53.458;9.940;2022-09-27T10:24:17;0.60;;;0.60;;
9270;SDS011;4673;53.458;9.940;2022-09-27T10:26:44;0.75;;;0.75;;
9270;SDS011;4673;53.458;9.940;2022-09-27T10:31:44;0.60;;;0.60;;
9270;SDS011;4673;53.458;9.940;2022-09-27T10:34:32;0.50;;;0.50;;
9270;SDS011;4673;53.458;9.940;2022-09-27T10:39:40;0.57;;;0.57;;
9270;SDS011;4673;53.458;9.940;2022-09-27T10:42:19;0.40;;;0.40;;
9270;SDS011;4673;53.458;9.940;2022-09-27T10:48:00;0.60;;;0.60;;
9270;SDS011;4673;53.458;9.940;2022-09-27T10:50:27;0.65;;;0.65;;
9270;SDS011;4673;53.458;9.940;2022-09-27T10:53:02;0.45;;;0.45;;
9270;SDS011;4673;53.458;9.940;2022-09-27T10:55:31;0.70;;;0.70;;
9270;SDS011;4673;53.458;9.940;2022-09-27T10:57:59;0.50;;;0.50;;
9270;SDS011;4673;53.458;9.940;2022-09-27T11:00:35;0.50;;;0.50;;
9270;SDS011;4673;53.458;9.940;2022-09-27T11:03:06;0.60;;;0.60;;
9270;SDS011;4673;53.458;9.940;2022-09-27T11:05:38;0.47;;;0.47;;
9270;SDS011;4673;53.458;9.940;2022-09-27T11:11:02;0.50;;;0.50;;
9270;SDS011;4673;53.458;9.940;2022-09-27T11:13:37;0.70;;;0.70;;
9270;SDS011;4673;53.458;9.940;2022-09-27T11:26:39;0.40;;;0.40;;
9270;SDS011;4673;53.458;9.940;2022-09-27T11:29:34;0.47;;;0.47;;
9270;SDS011;4673;53.458;9.940;2022-09-27T11:32:36;0.65;;;0.65;;
9270;SDS011;4673;53.458;9.940;2022-09-27T11:38:24;0.50;;;0.50;;
9270;SDS011;4673;53.458;9.940;2022-09-27T11:41:09;0.40;;;0.40;;
9270;SDS011;4673;53.458;9.940;2022-09-27T11:46:38;0.40;;;0.40;;
9270;SDS011;4673;53.458;9.940;2022-09-27T11:49:16;0.70;;;0.70;;
9270;SDS011;4673;53.458;9.940;2022-09-27T11:58:40;0.47;;;0.47;;
9270;SDS011;4673;53.458;9.940;2022-09-27T12:04:03;0.55;;;0.55;;
9270;SDS011;4673;53.458;9.940;2022-09-27T12:09:38;0.55;;;0.55;;
9270;SDS011;4673;53.458;9.940;2022-09-27T12:12:12;0.55;;;0.55;;
9270;SDS011;4673;53.458;9.940;2022-09-27T12:14:45;0.60;;;0.60;;
9270;SDS011;4673;53.458;9.940;2022-09-27T12:17:18;0.70;;;0.70;;
9270;SDS011;4673;53.458;9.940;2022-09-27T12:19:53;0.50;;;0.50;;
9270;SDS011;4673;53.458;9.940;2022-09-27T12:22:27;0.75;;;0.75;;
9270;SDS011;4673;53.458;9.940;2022-09-27T12:24:56;0.60;;;0.60;;
9270;SDS011;4673;53.458;9.940;2022-09-27T12:27:31;0.60;;;0.60;;
9270;SDS011;4673;53.458;9.940;2022-09-27T12:30:05;0.63;;;0.63;;
9270;SDS011;4673;53.458;9.940;2022-09-27T12:32:35;0.57;;;0.57;;
9270;SDS011;4673;53.458;9.940;2022-09-27T12:35:16;0.60;;;0.60;;
9270;SDS011;4673;53.458;9.940;2022-09-27T12:37:50;0.52;;;0.52;;
9270;SDS011;4673;53.458;9.940;2022-09-27T12:48:15;0.55;;;0.55;;
9270;SDS011;4673;53.458;9.940;2022-09-27T12:50:51;0.43;;;0.43;;
9270;SDS011;4673;53.458;9.940;2022-09-27T12:53:20;0.60;;;0.60;;
9270;SDS011;4673;53.458;9.940;2022-09-27T12:58:53;0.52;;;0.52;;
9270;SDS011;4673;53.458;9.940;2022-09-27T13:14:37;0.43;;;0.43;;
9270;SDS011;4673;53.458;9.940;2022-09-27T13:25:50;0.52;;;0.52;;
9270;SDS011;4673;53.458;9.940;2022-09-27T13:38:36;0.60;;;0.60;;
9270;SDS011;4673;53.458;9.940;2022-09-27T13:41:12;0.60;;;0.60;;
9270;SDS011;4673;53.458;9.940;2022-09-27T13:43:47;0.63;;;0.63;;
9270;SDS011;4673;53.458;9.940;2022-09-27T13:46:29;0.60;;;0.60;;
9270;SDS011;4673;53.458;9.940;2022-09-27T13:48:58;0.50;;;0.50;;
9270;SDS011;4673;53.458;9.940;2022-09-27T13:51:40;0.63;;;0.63;;
9270;SDS011;4673;53.458;9.940;2022-09-27T14:00:16;1.00;;;1.00;;
9270;SDS011;4673;53.458;9.940;2022-09-27T14:06:11;0.82;;;0.82;;
9270;SDS011;4673;53.458;9.940;2022-09-27T14:11:19;1.30;;;1.30;;
9270;SDS011;4673;53.458;9.940;2022-09-27T14:13:51;1.33;;;1.33;;
9270;SDS011;4673;53.458;9.940;2022-09-27T14:16:18;1.30;;;1.30;;
9270;SDS011;4673;53.458;9.940;2022-09-27T14:18:54;1.60;;;1.60;;
9270;SDS011;4673;53.458;9.940;2022-09-27T14:29:38;1.80;;;1.80;;
9270;SDS011;4673;53.458;9.940;2022-09-27T14:32:10;2.00;;;2.00;;
9270;SDS011;4673;53.458;9.940;2022-09-27T14:34:37;2.50;;;2.50;;
9270;SDS011;4673;53.458;9.940;2022-09-27T14:37:03;3.23;;;3.23;;
9270;SDS011;4673;53.458;9.940;2022-09-27T14:40:21;2.63;;;2.63;;
9270;SDS011;4673;53.458;9.940;2022-09-27T14:42:43;2.63;;;2.63;;
9270;SDS011;4673;53.458;9.940;2022-09-27T14:45:23;2.83;;;2.83;;
9270;SDS011;4673;53.458;9.940;2022-09-27T14:47:55;2.20;;;2.20;;
9270;SDS011;4673;53.458;9.940;2022-09-27T14:50:26;1.90;;;1.90;;
9270;SDS011;4673;53.458;9.940;2022-09-27T14:52:54;2.30;;;2.30;;
9270;SDS011;4673;53.458;9.940;2022-09-27T14:55:25;2.43;;;2.43;;
9270;SDS011;4673;53.458;9.940;2022-09-27T14:58:00;1.90;;;1.90;;
9270;SDS011;4673;53.458;9.940;2022-09-27T15:00:28;2.40;;;2.40;;
9270;SDS011;4673;53.458;9.940;2022-09-27T15:02:57;1.80;;;1.80;;
9270;SDS011;4673;53.458;9.940;2022-09-27T15:05:26;2.73;;;2.73;;
9270;SDS011;4673;53.458;9.940;2022-09-27T15:07:53;1.70;;;1.70;;
9270;SDS011;4673;53.458;9.940;2022-09-27T15:10:22;1.80;;;1.80;;
9270;SDS011;4673;53.458;9.940;2022-09-27T15:12:52;2.87;;;2.87;;
9270;SDS011;4673;53.458;9.940;2022-09-27T15:15:22;2.27;;;2.27;;
9270;SDS011;4673;53.458;9.940;2022-09-27T15:17:51;1.70;;;1.70;;
9270;SDS011;4673;53.458;9.940;2022-09-27T15:20:25;2.37;;;2.37;;
9270;SDS011;4673;53.458;9.940;2022-09-27T15:22:57;2.80;;;2.80;;
9270;SDS011;4673;53.458;9.940;2022-09-27T15:25:28;1.47;;;1.47;;
9270;SDS011;4673;53.458;9.940;2022-09-27T15:28:20;3.50;;;3.50;;
9270;SDS011;4673;53.458;9.940;2022-09-27T15:30:56;1.90;;;1.90;;
9270;SDS011;4673;53.458;9.940;2022-09-27T15:33:24;6.83;;;6.83;;
9270;SDS011;4673;53.458;9.940;2022-09-27T15:35:56;2.80;;;2.80;;
9270;SDS011;4673;53.458;9.940;2022-09-27T15:41:01;3.17;;;3.17;;
9270;SDS011;4673;53.458;9.940;2022-09-27T15:43:33;9.10;;;9.10;;
9270;SDS011;4673;53.458;9.940;2022-09-27T15:51:41;2.63;;;2.63;;
9270;SDS011;4673;53.458;9.940;2022-09-27T15:54:08;3.27;;;3.27;;
9270;SDS011;4673;53.458;9.940;2022-09-27T15:56:34;1.77;;;1.77;;
9270;SDS011;4673;53.458;9.940;2022-09-27T15:59:00;3.80;;;3.80;;
9270;SDS011;4673;53.458;9.940;2022-09-27T16:01:26;7.00;;;7.00;;
9270;SDS011;4673;53.458;9.940;2022-09-27T16:03:52;2.53;;;2.53;;
9270;SDS011;4673;53.458;9.940;2022-09-27T16:06:17;1.10;;;1.10;;
9270;SDS011;4673;53.458;9.940;2022-09-27T16:08:44;1.90;;;1.90;;
9270;SDS011;4673;53.458;9.940;2022-09-27T16:11:13;1.40;;;1.40;;
9270;SDS011;4673;53.458;9.940;2022-09-27T16:13:41;0.80;;;0.80;;
9270;SDS011;4673;53.458;9.940;2022-09-27T16:16:09;1.03;;;1.03;;
9270;SDS011;4673;53.458;9.940;2022-09-27T16:18:42;0.97;;;0.97;;
9270;SDS011;4673;53.458;9.940;2022-09-27T16:21:08;1.00;;;1.00;;
9270;SDS011;4673;53.458;9.940;2022-09-27T16:23:34;1.20;;;1.20;;
9270;SDS011;4673;53.458;9.940;2022-09-27T16:26:00;1.30;;;1.30;;
9270;SDS011;4673;53.458;9.940;2022-09-27T16:28:25;2.27;;;2.27;;
9270;SDS011;4673;53.458;9.940;2022-09-27T16:30:51;2.87;;;2.87;;
9270;SDS011;4673;53.458;9.940;2022-09-27T16:33:16;1.93;;;1.93;;
9270;SDS011;4673;53.458;9.940;2022-09-27T16:35:42;1.07;;;1.07;;
9270;SDS011;4673;53.458;9.940;2022-09-27T16:38:08;0.90;;;0.90;;
9270;SDS011;4673;53.458;9.940;2022-09-27T16:40:35;1.93;;;1.93;;
9270;SDS011;4673;53.458;9.940;2022-09-27T16:43:02;2.90;;;2.90;;
9270;SDS011;4673;53.458;9.940;2022-09-27T16:45:32;1.20;;;1.20;;
9270;SDS011;4673;53.458;9.940;2022-09-27T16:47:59;1.40;;;1.40;;
9270;SDS011;4673;53.458;9.940;2022-09-27T16:50:25;3.20;;;3.20;;
9270;SDS011;4673;53.458;9.940;2022-09-27T16:53:09;1.93;;;1.93;;
9270;SDS011;4673;53.458;9.940;2022-09-27T16:55:37;1.70;;;1.70;;
9270;SDS011;4673;53.458;9.940;2022-09-27T16:58:03;1.83;;;1.83;;
9270;SDS011;4673;53.458;9.940;2022-09-27T17:00:29;1.50;;;1.50;;
9270;SDS011;4673;53.458;9.940;2022-09-27T17:02:57;1.37;;;1.37;;
9270;SDS011;4673;53.458;9.940;2022-09-27T17:05:23;2.53;;;2.53;;
9270;SDS011;4673;53.458;9.940;2022-09-27T17:07:49;1.50;;;1.50;;
9270;SDS011;4673;53.458;9.940;2022-09-27T17:10:15;1.30;;;1.30;;
9270;SDS011;4673;53.458;9.940;2022-09-27T17:12:43;1.83;;;1.83;;
9270;SDS011;4673;53.458;9.940;2022-09-27T17:15:08;1.07;;;1.07;;
9270;SDS011;4673;53.458;9.940;2022-09-27T17:17:34;1.00;;;1.00;;
9270;SDS011;4673;53.458;9.940;2022-09-27T17:20:00;0.90;;;0.90;;
9270;SDS011;4673;53.458;9.940;2022-09-27T17:22:25;1.30;;;1.30;;
9270;SDS011;4673;53.458;9.940;2022-09-27T17:24:51;1.63;;;1.63;;
9270;SDS011;4673;53.458;9.940;2022-09-27T17:27:16;2.20;;;2.20;;
9270;SDS011;4673;53.458;9.940;2022-09-27T17:29:42;1.40;;;1.40;;
9270;SDS011;4673;53.458;9.940;2022-09-27T17:32:08;2.37;;;2.37;;
9270;SDS011;4673;53.458;9.940;2022-09-27T17:34:34;7.87;;;7.87;;
9270;SDS011;4673;53.458;9.940;2022-09-27T17:37:00;3.93;;;3.93;;
9270;SDS011;4673;53.458;9.940;2022-09-27T17:39:26;1.33;;;1.33;;
9270;SDS011;4673;53.458;9.940;2022-09-27T17:41:51;4.10;;;4.10;;
9270;SDS011;4673;53.458;9.940;2022-09-27T17:44:18;3.80;;;3.80;;
9270;SDS011;4673;53.458;9.940;2022-09-27T17:46:44;2.40;;;2.40;;
9270;SDS011;4673;53.458;9.940;2022-09-27T17:49:11;2.17;;;2.17;;
9270;SDS011;4673;53.458;9.940;2022-09-27T17:51:56;1.57;;;1.57;;
9270;SDS011;4673;53.458;9.940;2022-09-27T17:54:22;4.77;;;4.77;;
9270;SDS011;4673;53.458;9.940;2022-09-27T17:56:51;2.20;;;2.20;;
9270;SDS011;4673;53.458;9.940;2022-09-27T17:59:17;1.57;;;1.57;;
9270;SDS011;4673;53.458;9.940;2022-09-27T18:01:44;2.47;;;2.47;;
9270;SDS011;4673;53.458;9.940;2022-09-27T18:04:12;1.77;;;1.77;;
9270;SDS011;4673;53.458;9.940;2022-09-27T18:06:43;1.93;;;1.93;;
9270;SDS011;4673;53.458;9.940;2022-09-27T18:09:10;2.23;;;2.23;;
9270;SDS011;4673;53.458;9.940;2022-09-27T18:11:37;2.07;;;2.07;;
9270;SDS011;4673;53.458;9.940;2022-09-27T18:14:04;2.10;;;2.10;;
9270;SDS011;4673;53.458;9.940;2022-09-27T18:16:32;2.13;;;2.13;;